Flight Track Log - Related Links

Times and Time Zones

All times are in EDT time to prevent confusion due to time zone crossing. See the ASQ5958 flight status page for this flight to view local times or setup timezone preferences in your user account.


Time Position Orientation Groundspeed Altitude Reporting Facility
EDT Latitude Longitude Course Direction KTS MPH feet Rate Location/Type
Sat 07:08:46 AM 36.1333 -86.6833 68° East 152 175 1,000  Level Nashville TRACON
Sat 07:08:52 AM 36.1333 -86.7000 270° West 152 175 1,200 2,000 Climbing Nashville TRACON
Sat 07:09:52 AM 36.1500 -86.7333 302° West 178 205 3,200 2,118 Climbing Nashville TRACON
Sat 07:10:34 AM 36.1178 -86.7264 170° South 218 251 4,800 2,118 Climbing Memphis Center
Sat 07:11:00 AM 36.2755 -86.3361 64° Northeast  Level Estimated
Sat 07:11:34 AM 36.1281 -86.6464 81° East 244 281 6,800  Level Memphis Center
Sat 07:12:00 AM 36.3257 -86.2218 64° Northeast  Level Estimated
Sat 07:12:34 AM 36.1378 -86.5533 83° East 262 302 8,900  Level Memphis Center
Sat 07:13:00 AM 36.3757 -86.1074 68° East  Level Estimated
Sat 07:13:34 AM 36.1514 -86.4575 80° East 269 310 10,800  Level Memphis Center
Sat 07:14:00 AM 36.4256 -85.9928 68° East  Level Estimated
Sat 07:14:34 AM 36.1647 -86.3492 81° East 305 351 12,300  Level Memphis Center
Sat 07:15:34 AM 36.1797 -86.2325 81° East 331 381 13,800 1,550 Climbing Memphis Center
Sat 07:16:34 AM 36.1942 -86.1083 82° East 353 406 15,400 1,400 Climbing Memphis Center
Sat 07:17:34 AM 36.2281 -86.0064 68° East 353 406 16,600 1,350 Climbing Memphis Center
Sat 07:18:34 AM 36.2783 -85.8956 61° Northeast 358 412 18,100 1,314 Climbing Memphis Center
Sat 07:19:19 AM 36.3172 -85.8083 61° Northeast 370 426 18,900 1,302 Climbing Indianapolis Center
Sat 07:20:20 AM 36.3714 -85.6947 59° Northeast 379 436 20,400 1,475 Climbing Indianapolis Center
Sat 07:21:21 AM 36.4253 -85.5781 60° Northeast 385 443 21,900 1,426 Climbing Indianapolis Center
Sat 07:22:22 AM 36.4817 -85.4614 59° Northeast 392 451 23,300 1,438 Climbing Indianapolis Center
Sat 07:23:22 AM 36.5378 -85.3439 59° Northeast 393 452 24,800 1,488 Climbing Indianapolis Center
Sat 07:24:23 AM 36.5925 -85.2244 60° Northeast 395 455 26,300 1,426 Climbing Indianapolis Center
Sat 07:25:24 AM 36.6394 -85.0997 65° Northeast 398 458 27,700 1,180 Climbing Indianapolis Center
Sat 07:26:25 AM 36.6794 -84.9689 69° East 402 463 28,700 984 Climbing Indianapolis Center
Sat 07:27:26 AM 36.7194 -84.8347 70° East 410 472 29,700 984 Climbing Indianapolis Center
Sat 07:28:27 AM 36.7614 -84.6992 69° East 418 481 30,700 984 Climbing Indianapolis Center
Sat 07:29:28 AM 36.8028 -84.5608 69° East 425 489 31,700 1,033 Climbing Indianapolis Center
Sat 07:30:29 AM 36.8500 -84.4039 69° East 433 498 32,800 1,033 Climbing Indianapolis Center
Sat 07:31:30 AM 36.8925 -84.2614 70° East 439 505 33,800 942 Climbing Indianapolis Center
Sat 07:32:30 AM 36.9356 -84.1175 69° East 441 507 34,700 595 Climbing Indianapolis Center
Sat 07:33:31 AM 36.9781 -83.9728 70° East 447 514 35,000 148 Climbing Indianapolis Center
Sat 07:34:32 AM 37.0244 -83.8214 69° East 463 533 35,000  Level Indianapolis Center
Sat 07:35:33 AM 37.0719 -83.6647 69° East 483 556 35,000  Level Indianapolis Center
Sat 07:36:34 AM 37.1183 -83.5081 70° East 484 557 35,000  Level Indianapolis Center
Sat 07:37:35 AM 37.1633 -83.3503 70° East 482 555 35,000  Level Indianapolis Center
Sat 07:38:36 AM 37.2086 -83.1894 70° East 488 562 35,000  Level Indianapolis Center
Sat 07:39:37 AM 37.2544 -83.0317 70° East 481 554 35,000  Level Indianapolis Center
Sat 07:40:38 AM 37.3006 -82.8703 70° East 485 558 35,000  Level Indianapolis Center
Sat 07:41:38 AM 37.3461 -82.7106 70° East 485 558 35,000  Level Indianapolis Center
Sat 07:42:39 AM 37.3903 -82.5533 70° East 477 549 35,000  Level Indianapolis Center
Sat 07:43:40 AM 37.4353 -82.3933 70° East 481 554 35,000  Level Indianapolis Center
Sat 07:44:41 AM 37.4869 -82.2075 71° East 482 555 35,000  Level Indianapolis Center
Sat 07:45:42 AM 37.5317 -82.0492 70° East 478 550 35,000  Level Indianapolis Center
Sat 07:46:43 AM 37.5758 -81.8881 71° East 485 558 35,000  Level Indianapolis Center
Sat 07:47:44 AM 37.6186 -81.7269 71° East 483 556 35,000  Level Indianapolis Center
Sat 07:48:44 AM 37.6636 -81.5667 70° East 484 557 35,000  Level Indianapolis Center
Sat 07:49:45 AM 37.7061 -81.4025 72° East 488 562 35,000  Level Indianapolis Center
Sat 07:50:46 AM 37.7492 -81.2444 71° East 487 560 35,000  Level Indianapolis Center
Sat 07:51:47 AM 37.7828 -81.0819 75° East 490 564 35,000  Level Indianapolis Center
Sat 07:52:48 AM 37.7950 -80.9111 85° East 500 575 35,000  Level Indianapolis Center
Sat 07:53:49 AM 37.8058 -80.7389 85° East 498 573 35,000  Level Indianapolis Center
Sat 07:54:50 AM 37.8172 -80.5589 85° East 503 579 35,000  Level Indianapolis Center
Sat 07:55:50 AM 37.8294 -80.3619 85° East 502 578 35,000  Level Indianapolis Center
Sat 07:56:51 AM 37.8394 -80.1900 86° East 502 578 35,000  Level Indianapolis Center
Sat 07:57:52 AM 37.8503 -80.0164 85° East 504 580 35,000  Level Indianapolis Center
Sat 07:58:53 AM 37.8608 -79.8425 86° East 506 582 35,000  Level Indianapolis Center
Sat 07:59:54 AM 37.8697 -79.6678 86° East 505 581 35,000  Level Indianapolis Center
Sat 08:00:55 AM 37.8814 -79.4575 86° East 507 583 35,000  Level Indianapolis Center
Sat 08:02:03 AM 37.8953 -79.2892 84° East 498 573 35,000  Level Washington Center
Sat 08:03:03 AM 37.9047 -79.1106 86° East 498 573 35,000  Level Washington Center
Sat 08:04:03 AM 37.9244 -78.9378 82° East 498 573 35,000  Level Washington Center
Sat 08:05:01 AM 37.9458 -78.7622 81° East 498 573 35,000  Level Washington Center
Sat 08:06:00 AM 37.9669 -78.5892 81° East 503 579 35,000  Level Washington Center
Sat 08:07:03 AM 37.9883 -78.3978 82° East 503 579 35,000  Level Washington Center
Sat 08:08:03 AM 38.0089 -78.2219 82° East 503 579 35,000  Level Washington Center
Sat 08:09:01 AM 38.0494 -78.0811 70° East 497 572 35,000  Level Washington Center
Sat 08:10:01 AM 38.1211 -77.9356 58° Northeast 476 548 35,000  Level Washington Center
Sat 08:11:02 AM 38.1947 -77.7925 57° Northeast 471 542 35,000  Level Washington Center
Sat 08:12:02 AM 38.2661 -77.6464 58° Northeast 477 549 35,000  Level Washington Center
Sat 08:13:02 AM 38.3375 -77.5031 58° Northeast 482 555 35,000  Level Washington Center
Sat 08:14:03 AM 38.4064 -77.3564 59° Northeast 482 555 35,000  Level Washington Center
Sat 08:15:01 AM 38.4792 -77.2122 57° Northeast 482 555 35,000  Level Washington Center
Sat 08:16:02 AM 38.5500 -77.0650 58° Northeast 482 555 35,000  Level Washington Center
Sat 08:17:02 AM 38.6267 -76.9256 55° Northeast 482 555 35,000  Level Washington Center
Sat 08:18:00 AM 38.7194 -76.8103 44° Northeast 471 542 35,000  Level Washington Center
Sat 08:19:03 AM 38.8125 -76.6892 45° Northeast 466 536 35,000  Level Washington Center
Sat 08:20:03 AM 38.9053 -76.5706 45° Northeast 466 536 35,000 -974 Level Washington Center
Sat 08:21:00 AM 38.9978 -76.4517 45° Northeast 466 536 33,100 -2,471 Descending Washington Center
Sat 08:22:02 AM 39.0883 -76.3269 47° Northeast 466 536 30,100 -2,634 Descending Washington Center
Sat 08:23:03 AM 39.1828 -76.2075 44° Northeast 471 542 27,700 -1,600 Descending Washington Center
Sat 08:24:02 AM 39.2792 -76.0850 45° Northeast 476 548 26,900 -350 Descending Washington Center
Sat 08:25:03 AM 39.3775 -75.9675 43° Northeast 476 548 27,000 50 Climbing Washington Center
Sat 08:26:01 AM 39.4758 -75.8522 42° Northeast 476 548 27,000  Level Washington Center
Sat 08:27:02 AM 39.5761 -75.7342 42° Northeast 476 548 27,000 -639 Level Washington Center
Sat 08:28:03 AM 39.6739 -75.6158 43° Northeast 476 548 25,700 -2,168 Descending Washington Center
Sat 08:29:01 AM 39.7719 -75.4969 43° Northeast 476 548 22,700 -3,102 Descending Washington Center
Sat 08:30:01 AM 39.8633 -75.3861 43° Northeast 462 532 19,600 -2,950 Descending Washington Center
Sat 08:31:01 AM 39.9506 -75.2803 43° Northeast 444 511 16,800 -2,876 Descending Washington Center
Sat 08:32:02 AM 40.0358 -75.1769 43° Northeast 420 483 13,800 -2,803 Descending Washington Center
Sat 08:33:03 AM 40.1208 -75.0706 44° Northeast 397 457 11,100 -1,792 Descending Washington Center
Sat 08:34:26 AM 40.2167 -74.9667 40° Northeast 304 350 9,500 -1,259 Descending New York TRACON
Sat 08:35:26 AM 40.2667 -74.8833 52° Northeast 301 346 8,100 -833 Descending New York TRACON
Sat 08:36:14 AM 40.3167 -74.8167 45° Northeast 302 348 8,000 -500 Descending New York TRACON
Sat 08:37:14 AM 40.3833 -74.7333 44° Northeast 306 352 7,200 -895 Descending New York TRACON
Sat 08:38:08 AM 40.4333 -74.6667 45° Northeast 306 352 6,300 -632 Descending New York TRACON
Sat 08:39:08 AM 40.5000 -74.6500 11° North 277 319 6,000 -150 Descending New York TRACON
Sat 08:40:08 AM 40.5833 -74.6333 North 272 313 6,000 53 Level New York TRACON
Sat 08:41:02 AM 40.6500 -74.6167 11° North 274 315 6,100 56 Climbing New York TRACON
Sat 08:41:56 AM 40.7167 -74.5833 21° North 273 314 6,100 -300 Level New York TRACON
Sat 08:43:02 AM 40.7833 -74.5167 37° Northeast 290 334 5,500 -700 Descending New York TRACON
Sat 08:43:56 AM 40.8333 -74.4667 37° Northeast 290 334 4,700 -737 Descending New York TRACON
Sat 08:44:56 AM 40.8667 -74.3833 62° Northeast 278 320 4,100 -750 Descending New York TRACON
Sat 08:45:56 AM 40.9000 -74.2833 66° East 279 321 3,200 -500 Descending New York TRACON
Sat 08:46:56 AM 40.9167 -74.1833 78° East 277 319 3,100 -53 Descending New York TRACON
Sat 08:47:50 AM 40.8833 -74.1333 131° Southeast 224 258 3,100  Level New York TRACON
Sat 08:48:50 AM 40.8500 -74.0833 131° Southeast 185 213 3,100 -350 Level New York TRACON
Sat 08:49:50 AM 40.8000 -74.0833 180° South 172 198 2,400 -650 Descending New York TRACON
Sat 08:50:50 AM 40.7500 -74.0833 180° South 177 204 1,800 -550 Descending New York TRACON
Sat 08:51:50 AM 40.7167 -74.1000 201° Southwest 123 142 1,300 -650 Descending New York TRACON
Sat 08:52:50 AM 40.7000 -74.1333 237° Southwest 124 143 500 -800 Descending New York TRACON

Login

Don't have an account? Register now (free) for customized features, flight alerts, and more!